Van Metre, South Dakota
Current Conditions -  °F | °C
As of 8:53 AM on Thursday 18 Dec 2014 (Local Time) from KPIR Reporting Station
Haze Haze  
Wind Chill: 14°   Ceiling: 1300
Heat Index: 22°   Visibility: 6mi
Dew Point: 20°   Wind: 6mph
Humidity: 92%   Direction: 130°SE
Pressure: 30.1"   Gusts: NA
Location:  43.9557°N, 100.703°W
Report Text: KPIR 181453Z AUTO 13005KT 6SM BR FEW006 OVC013 M06/M07 A3010 RMK AO2 SLP222 T10561067 53002
Loading
Personal Weather Stations






























Interactive Weather Map New forecast layout! Learn more

10-Day Weather Forecast

Advertisements
Track Severe Weather on mobile